sensor_id;sensor_type;location;lat;lon;timestamp;pressure;altitude;pressure_sealevel;temperature;humidity
55914;BME280;58179;48.776;9.124;2023-02-17T00:00:26;98182.31;;;6.49;100.00
55914;BME280;58179;48.776;9.124;2023-02-17T00:02:55;98188.41;;;6.43;100.00
55914;BME280;58179;48.776;9.124;2023-02-17T00:05:21;98193.25;;;6.40;100.00
55914;BME280;58179;48.776;9.124;2023-02-17T00:07:47;98191.06;;;6.37;100.00
55914;BME280;58179;48.776;9.124;2023-02-17T00:10:13;98191.06;;;6.37;100.00
55914;BME280;58179;48.776;9.124;2023-02-17T00:12:39;98189.63;;;6.34;100.00
55914;BME280;58179;48.776;9.124;2023-02-17T00:15:06;98187.63;;;6.30;100.00
55914;BME280;58179;48.776;9.124;2023-02-17T00:17:33;98188.44;;;6.24;100.00
55914;BME280;58179;48.776;9.124;2023-02-17T00:19:59;98187.41;;;6.18;100.00
55914;BME280;58179;48.776;9.124;2023-02-17T00:22:26;98174.88;;;6.20;100.00
55914;BME280;58179;48.776;9.124;2023-02-17T00:24:52;98179.94;;;6.15;100.00
55914;BME280;58179;48.776;9.124;2023-02-17T00:27:18;98176.31;;;6.16;100.00
55914;BME280;58179;48.776;9.124;2023-02-17T00:29:44;98178.53;;;6.19;100.00
55914;BME280;58179;48.776;9.124;2023-02-17T00:32:10;98176.31;;;6.22;100.00
55914;BME280;58179;48.776;9.124;2023-02-17T00:34:38;98175.06;;;6.32;100.00
55914;BME280;58179;48.776;9.124;2023-02-17T00:37:04;98173.47;;;6.31;100.00
55914;BME280;58179;48.776;9.124;2023-02-17T00:39:30;98172.03;;;6.35;100.00
55914;BME280;58179;48.776;9.124;2023-02-17T00:41:56;98173.47;;;6.37;100.00
55914;BME280;58179;48.776;9.124;2023-02-17T00:44:23;98173.84;;;6.41;100.00
55914;BME280;58179;48.776;9.124;2023-02-17T00:46:50;98174.25;;;6.44;100.00
55914;BME280;58179;48.776;9.124;2023-02-17T00:49:17;98171.00;;;6.42;100.00
55914;BME280;58179;48.776;9.124;2023-02-17T00:51:45;98169.19;;;6.43;100.00
55914;BME280;58179;48.776;9.124;2023-02-17T00:54:12;98169.59;;;6.40;100.00
55914;BME280;58179;48.776;9.124;2023-02-17T00:56:38;98168.19;;;6.44;100.00
55914;BME280;58179;48.776;9.124;2023-02-17T00:59:05;98163.75;;;6.38;100.00
55914;BME280;58179;48.776;9.124;2023-02-17T01:01:31;98165.75;;;6.36;100.00
55914;BME280;58179;48.776;9.124;2023-02-17T01:03:57;98168.00;;;6.39;100.00
55914;BME280;58179;48.776;9.124;2023-02-17T01:06:26;98166.78;;;6.35;100.00
55914;BME280;58179;48.776;9.124;2023-02-17T01:08:54;98172.44;;;6.38;100.00
55914;BME280;58179;48.776;9.124;2023-02-17T01:11:22;98173.03;;;6.40;100.00
55914;BME280;58179;48.776;9.124;2023-02-17T01:13:49;98170.19;;;6.42;100.00
55914;BME280;58179;48.776;9.124;2023-02-17T01:16:18;98162.50;;;6.47;100.00
55914;BME280;58179;48.776;9.124;2023-02-17T01:18:44;98161.72;;;6.46;100.00
55914;BME280;58179;48.776;9.124;2023-02-17T01:21:15;98157.03;;;6.48;100.00
55914;BME280;58179;48.776;9.124;2023-02-17T01:23:41;98155.22;;;6.49;100.00
55914;BME280;58179;48.776;9.124;2023-02-17T01:26:13;98156.44;;;6.53;100.00
55914;BME280;58179;48.776;9.124;2023-02-17T01:28:39;98156.41;;;6.59;100.00
55914;BME280;58179;48.776;9.124;2023-02-17T01:31:05;98153.78;;;6.59;100.00
55914;BME280;58179;48.776;9.124;2023-02-17T01:33:31;98145.69;;;6.61;100.00
55914;BME280;58179;48.776;9.124;2023-02-17T01:36:01;98153.78;;;6.59;100.00
55914;BME280;58179;48.776;9.124;2023-02-17T01:38:26;98142.84;;;6.56;100.00
55914;BME280;58179;48.776;9.124;2023-02-17T01:40:52;98145.91;;;6.59;100.00
55914;BME280;58179;48.776;9.124;2023-02-17T01:43:20;98142.69;;;6.51;100.00
55914;BME280;58179;48.776;9.124;2023-02-17T01:45:50;98136.81;;;6.49;100.00
55914;BME280;58179;48.776;9.124;2023-02-17T01:48:18;98131.34;;;6.50;100.00
55914;BME280;58179;48.776;9.124;2023-02-17T01:50:49;98130.53;;;6.50;100.00
55914;BME280;58179;48.776;9.124;2023-02-17T01:53:19;98125.28;;;6.43;100.00
55914;BME280;58179;48.776;9.124;2023-02-17T01:55:47;98121.84;;;6.43;100.00
55914;BME280;58179;48.776;9.124;2023-02-17T01:58:18;98127.31;;;6.41;100.00
55914;BME280;58179;48.776;9.124;2023-02-17T02:00:47;98120.25;;;6.35;100.00
55914;BME280;58179;48.776;9.124;2023-02-17T02:03:13;98125.72;;;6.34;100.00
55914;BME280;58179;48.776;9.124;2023-02-17T02:05:41;98130.78;;;6.35;100.00
55914;BME280;58179;48.776;9.124;2023-02-17T02:08:08;98134.22;;;6.36;100.00
55914;BME280;58179;48.776;9.124;2023-02-17T02:10:35;98124.91;;;6.33;100.00
55914;BME280;58179;48.776;9.124;2023-02-17T02:13:02;98121.88;;;6.36;100.00
55914;BME280;58179;48.776;9.124;2023-02-17T02:15:34;98112.97;;;6.37;100.00
55914;BME280;58179;48.776;9.124;2023-02-17T02:18:15;98120.06;;;6.37;100.00
55914;BME280;58179;48.776;9.124;2023-02-17T02:21:31;98118.03;;;6.32;100.00
55914;BME280;58179;48.776;9.124;2023-02-17T02:24:19;98112.78;;;6.26;100.00
55914;BME280;58179;48.776;9.124;2023-02-17T02:30:44;98112.19;;;6.17;100.00
55914;BME280;58179;48.776;9.124;2023-02-17T02:33:26;98106.34;;;6.15;100.00
55914;BME280;58179;48.776;9.124;2023-02-17T02:36:02;98110.59;;;6.16;100.00
55914;BME280;58179;48.776;9.124;2023-02-17T02:38:36;98111.59;;;6.15;100.00
55914;BME280;58179;48.776;9.124;2023-02-17T02:41:08;98104.09;;;6.18;100.00
55914;BME280;58179;48.776;9.124;2023-02-17T02:43:37;98105.34;;;6.16;100.00
55914;BME280;58179;48.776;9.124;2023-02-17T02:46:03;98103.28;;;6.18;100.00
55914;BME280;58179;48.776;9.124;2023-02-17T02:48:30;98107.53;;;6.19;100.00
55914;BME280;58179;48.776;9.124;2023-02-17T02:51:19;98092.38;;;6.21;100.00
55914;BME280;58179;48.776;9.124;2023-02-17T02:54:14;98099.25;;;6.22;100.00
55914;BME280;58179;48.776;9.124;2023-02-17T02:59:52;98084.31;;;6.16;100.00
55914;BME280;58179;48.776;9.124;2023-02-17T03:02:29;98084.72;;;6.13;100.00
55914;BME280;58179;48.776;9.124;2023-02-17T03:05:06;98076.03;;;6.12;100.00
55914;BME280;58179;48.776;9.124;2023-02-17T03:07:41;98084.50;;;6.14;100.00
55914;BME280;58179;48.776;9.124;2023-02-17T03:10:09;98078.66;;;6.06;100.00
55914;BME280;58179;48.776;9.124;2023-02-17T03:12:38;98079.84;;;6.10;100.00
55914;BME280;58179;48.776;9.124;2023-02-17T03:15:15;98071.97;;;6.10;100.00
55914;BME280;58179;48.776;9.124;2023-02-17T03:17:44;98074.22;;;6.06;100.00
55914;BME280;58179;48.776;9.124;2023-02-17T03:20:12;98073.78;;;6.09;100.00
55914;BME280;58179;48.776;9.124;2023-02-17T03:22:46;98070.38;;;6.09;100.00
55914;BME280;58179;48.776;9.124;2023-02-17T03:25:14;98063.88;;;6.11;100.00
55914;BME280;58179;48.776;9.124;2023-02-17T03:27:40;98072.56;;;6.12;100.00
55914;BME280;58179;48.776;9.124;2023-02-17T03:30:08;98069.16;;;6.11;100.00
55914;BME280;58179;48.776;9.124;2023-02-17T03:32:35;98078.25;;;6.15;100.00
55914;BME280;58179;48.776;9.124;2023-02-17T03:35:01;98086.53;;;6.12;100.00
55914;BME280;58179;48.776;9.124;2023-02-17T03:37:29;98088.97;;;6.07;100.00
55914;BME280;58179;48.776;9.124;2023-02-17T03:39:55;98091.59;;;6.07;100.00
55914;BME280;58179;48.776;9.124;2023-02-17T03:42:21;98085.31;;;6.15;100.00
55914;BME280;58179;48.776;9.124;2023-02-17T03:44:46;98092.19;;;6.16;100.00
55914;BME280;58179;48.776;9.124;2023-02-17T03:47:12;98093.22;;;6.08;100.00
55914;BME280;58179;48.776;9.124;2023-02-17T03:49:38;98088.97;;;6.07;100.00
55914;BME280;58179;48.776;9.124;2023-02-17T03:52:04;98088.38;;;6.05;100.00
55914;BME280;58179;48.776;9.124;2023-02-17T03:54:31;98086.13;;;6.02;100.00
55914;BME280;58179;48.776;9.124;2023-02-17T03:56:57;98088.56;;;5.97;100.00
55914;BME280;58179;48.776;9.124;2023-02-17T03:59:25;98077.44;;;5.95;100.00
55914;BME280;58179;48.776;9.124;2023-02-17T04:01:51;98075.25;;;5.99;100.00
55914;BME280;58179;48.776;9.124;2023-02-17T04:04:18;98075.03;;;6.00;100.00
55914;BME280;58179;48.776;9.124;2023-02-17T04:06:44;98080.28;;;6.07;100.00
55914;BME280;58179;48.776;9.124;2023-02-17T04:09:10;98086.94;;;6.22;100.00
55914;BME280;58179;48.776;9.124;2023-02-17T04:11:37;98084.25;;;6.36;100.00
55914;BME280;58179;48.776;9.124;2023-02-17T04:14:03;98084.03;;;6.44;100.00
55914;BME280;58179;48.776;9.124;2023-02-17T04:16:29;98086.84;;;6.49;100.00
55914;BME280;58179;48.776;9.124;2023-02-17T04:18:55;98085.63;;;6.51;100.00
55914;BME280;58179;48.776;9.124;2023-02-17T04:21:21;98085.81;;;6.56;100.00
55914;BME280;58179;48.776;9.124;2023-02-17T04:23:47;98092.03;;;6.62;100.00
55914;BME280;58179;48.776;9.124;2023-02-17T04:26:13;98094.22;;;6.78;100.00
55914;BME280;58179;48.776;9.124;2023-02-17T04:28:41;98097.84;;;6.77;100.00
55914;BME280;58179;48.776;9.124;2023-02-17T04:31:07;98095.22;;;6.84;100.00
55914;BME280;58179;48.776;9.124;2023-02-17T04:33:34;98087.41;;;7.02;100.00
55914;BME280;58179;48.776;9.124;2023-02-17T04:36:00;98085.22;;;6.92;100.00
55914;BME280;58179;48.776;9.124;2023-02-17T04:38:27;98076.97;;;6.89;100.00
55914;BME280;58179;48.776;9.124;2023-02-17T04:40:54;98078.47;;;7.10;100.00
55914;BME280;58179;48.776;9.124;2023-02-17T04:43:21;98069.75;;;7.09;100.00
55914;BME280;58179;48.776;9.124;2023-02-17T04:45:48;98070.19;;;7.06;100.00
55914;BME280;58179;48.776;9.124;2023-02-17T04:48:14;98067.13;;;7.09;100.00
55914;BME280;58179;48.776;9.124;2023-02-17T04:50:40;98063.47;;;7.10;100.00
55914;BME280;58179;48.776;9.124;2023-02-17T04:53:06;98058.81;;;7.12;100.00
55914;BME280;58179;48.776;9.124;2023-02-17T04:55:33;98062.03;;;7.14;100.00
55914;BME280;58179;48.776;9.124;2023-02-17T04:57:58;98058.63;;;7.07;100.00
55914;BME280;58179;48.776;9.124;2023-02-17T05:00:25;98049.41;;;7.23;100.00
55914;BME280;58179;48.776;9.124;2023-02-17T05:02:52;98052.81;;;7.30;100.00
55914;BME280;58179;48.776;9.124;2023-02-17T05:05:18;98061.50;;;7.30;100.00
55914;BME280;58179;48.776;9.124;2023-02-17T05:07:45;98061.50;;;7.30;100.00
55914;BME280;58179;48.776;9.124;2023-02-17T05:10:12;98057.50;;;7.28;100.00
55914;BME280;58179;48.776;9.124;2023-02-17T05:12:38;98055.22;;;7.31;100.00
55914;BME280;58179;48.776;9.124;2023-02-17T05:15:06;98049.59;;;7.28;100.00
55914;BME280;58179;48.776;9.124;2023-02-17T05:17:33;98058.13;;;7.23;100.00
55914;BME280;58179;48.776;9.124;2023-02-17T05:20:00;98054.88;;;7.28;100.00
55914;BME280;58179;48.776;9.124;2023-02-17T05:22:27;98059.56;;;7.51;100.00
55914;BME280;58179;48.776;9.124;2023-02-17T05:24:53;98059.56;;;7.51;100.00
55914;BME280;58179;48.776;9.124;2023-02-17T05:27:19;98062.88;;;7.64;100.00
55914;BME280;58179;48.776;9.124;2023-02-17T05:29:45;98058.91;;;7.55;100.00
55914;BME280;58179;48.776;9.124;2023-02-17T05:32:11;98054.50;;;7.49;100.00
55914;BME280;58179;48.776;9.124;2023-02-17T05:34:37;98060.38;;;7.45;100.00
55914;BME280;58179;48.776;9.124;2023-02-17T05:37:04;98058.63;;;7.38;100.00
55914;BME280;58179;48.776;9.124;2023-02-17T05:39:30;98053.53;;;7.44;100.00
55914;BME280;58179;48.776;9.124;2023-02-17T05:41:56;98057.75;;;7.45;100.00
55914;BME280;58179;48.776;9.124;2023-02-17T05:44:22;98066.09;;;7.42;100.00
55914;BME280;58179;48.776;9.124;2023-02-17T05:46:48;98066.47;;;7.45;100.00
55914;BME280;58179;48.776;9.124;2023-02-17T05:49:14;98073.34;;;7.46;100.00
55914;BME280;58179;48.776;9.124;2023-02-17T05:51:40;98075.78;;;7.48;100.00
55914;BME280;58179;48.776;9.124;2023-02-17T05:54:07;98076.53;;;7.55;100.00
55914;BME280;58179;48.776;9.124;2023-02-17T05:56:33;98086.22;;;7.61;100.00
55914;BME280;58179;48.776;9.124;2023-02-17T05:58:59;98092.22;;;7.68;100.00
55914;BME280;58179;48.776;9.124;2023-02-17T06:01:25;98084.25;;;7.81;100.00
55914;BME280;58179;48.776;9.124;2023-02-17T06:03:51;98093.19;;;7.98;100.00
55914;BME280;58179;48.776;9.124;2023-02-17T06:06:17;98092.63;;;7.96;100.00
55914;BME280;58179;48.776;9.124;2023-02-17T06:08:43;98091.22;;;7.94;100.00
55914;BME280;58179;48.776;9.124;2023-02-17T06:11:11;98094.88;;;7.93;100.00
55914;BME280;58179;48.776;9.124;2023-02-17T06:13:37;98093.84;;;7.94;100.00
55914;BME280;58179;48.776;9.124;2023-02-17T06:16:03;98089.53;;;7.99;100.00
55914;BME280;58179;48.776;9.124;2023-02-17T06:18:29;98099.28;;;7.99;100.00
55914;BME280;58179;48.776;9.124;2023-02-17T06:20:55;98097.31;;;8.12;100.00
55914;BME280;58179;48.776;9.124;2023-02-17T06:23:22;98103.63;;;8.11;100.00
55914;BME280;58179;48.776;9.124;2023-02-17T06:25:48;98101.03;;;8.05;100.00
55914;BME280;58179;48.776;9.124;2023-02-17T06:28:16;98112.63;;;8.04;100.00
55914;BME280;58179;48.776;9.124;2023-02-17T06:30:42;98109.59;;;8.00;100.00
55914;BME280;58179;48.776;9.124;2023-02-17T06:33:08;98111.66;;;7.98;100.00
55914;BME280;58179;48.776;9.124;2023-02-17T06:35:33;98119.13;;;8.01;100.00
55914;BME280;58179;48.776;9.124;2023-02-17T06:37:59;98113.25;;;7.99;100.00
55914;BME280;58179;48.776;9.124;2023-02-17T06:40:26;98117.72;;;7.99;100.00
55914;BME280;58179;48.776;9.124;2023-02-17T06:42:51;98111.59;;;8.05;100.00
55914;BME280;58179;48.776;9.124;2023-02-17T06:45:19;98110.88;;;8.16;100.00
55914;BME280;58179;48.776;9.124;2023-02-17T06:47:45;98102.66;;;8.06;100.00
55914;BME280;58179;48.776;9.124;2023-02-17T06:50:11;98102.25;;;8.27;100.00
55914;BME280;58179;48.776;9.124;2023-02-17T06:52:37;98107.22;;;8.17;100.00
55914;BME280;58179;48.776;9.124;2023-02-17T06:55:04;98105.94;;;8.26;100.00
55914;BME280;58179;48.776;9.124;2023-02-17T06:57:30;98110.22;;;8.45;100.00
55914;BME280;58179;48.776;9.124;2023-02-17T06:59:56;98108.59;;;8.44;100.00
55914;BME280;58179;48.776;9.124;2023-02-17T07:02:23;98114.69;;;8.45;100.00
55914;BME280;58179;48.776;9.124;2023-02-17T07:04:49;98125.63;;;8.48;100.00
55914;BME280;58179;48.776;9.124;2023-02-17T07:07:15;98131.09;;;8.47;100.00
55914;BME280;58179;48.776;9.124;2023-02-17T07:09:42;98130.88;;;8.48;100.00
55914;BME280;58179;48.776;9.124;2023-02-17T07:12:08;98137.47;;;8.58;100.00
55914;BME280;58179;48.776;9.124;2023-02-17T07:14:34;98136.59;;;8.45;100.00
55914;BME280;58179;48.776;9.124;2023-02-17T07:17:00;98138.00;;;8.48;100.00
55914;BME280;58179;48.776;9.124;2023-02-17T07:19:28;98140.06;;;8.64;100.00
55914;BME280;58179;48.776;9.124;2023-02-17T07:21:54;98128.88;;;8.80;100.00
55914;BME280;58179;48.776;9.124;2023-02-17T07:24:20;98129.56;;;8.58;100.00
55914;BME280;58179;48.776;9.124;2023-02-17T07:26:47;98139.63;;;8.49;100.00
55914;BME280;58179;48.776;9.124;2023-02-17T07:29:13;98140.38;;;8.49;100.00
55914;BME280;58179;48.776;9.124;2023-02-17T07:31:39;98137.25;;;8.59;100.00
55914;BME280;58179;48.776;9.124;2023-02-17T07:34:05;98148.91;;;8.51;100.00
55914;BME280;58179;48.776;9.124;2023-02-17T07:36:32;98139.91;;;8.41;100.00
55914;BME280;58179;48.776;9.124;2023-02-17T07:38:58;98146.47;;;8.50;100.00
55914;BME280;58179;48.776;9.124;2023-02-17T07:41:25;98150.81;;;8.44;100.00
55914;BME280;58179;48.776;9.124;2023-02-17T07:43:54;98136.59;;;8.45;100.00
55914;BME280;58179;48.776;9.124;2023-02-17T07:46:21;98141.59;;;8.53;100.00
55914;BME280;58179;48.776;9.124;2023-02-17T07:48:47;98136.38;;;8.65;100.00
55914;BME280;58179;48.776;9.124;2023-02-17T07:51:18;98139.88;;;8.59;100.00
55914;BME280;58179;48.776;9.124;2023-02-17T07:53:46;98151.19;;;8.66;100.00
55914;BME280;58179;48.776;9.124;2023-02-17T07:56:18;98154.78;;;8.72;100.00
55914;BME280;58179;48.776;9.124;2023-02-17T07:58:46;98155.22;;;8.69;100.00
55914;BME280;58179;48.776;9.124;2023-02-17T08:01:15;98155.28;;;8.80;100.00
55914;BME280;58179;48.776;9.124;2023-02-17T08:03:44;98151.84;;;8.80;100.00
55914;BME280;58179;48.776;9.124;2023-02-17T08:06:15;98163.00;;;9.00;100.00
55914;BME280;58179;48.776;9.124;2023-02-17T08:08:41;98164.97;;;9.05;100.00
55914;BME280;58179;48.776;9.124;2023-02-17T08:11:28;98155.59;;;8.90;100.00
55914;BME280;58179;48.776;9.124;2023-02-17T08:14:13;98151.97;;;9.03;100.00
55914;BME280;58179;48.776;9.124;2023-02-17T08:16:39;98145.97;;;8.96;100.00
55914;BME280;58179;48.776;9.124;2023-02-17T08:19:05;98141.28;;;8.98;100.00
55914;BME280;58179;48.776;9.124;2023-02-17T08:21:31;98153.00;;;9.02;100.00
55914;BME280;58179;48.776;9.124;2023-02-17T08:23:57;98144.97;;;9.27;100.00
55914;BME280;58179;48.776;9.124;2023-02-17T08:26:24;98152.78;;;9.63;100.00
55914;BME280;58179;48.776;9.124;2023-02-17T08:28:51;98141.97;;;9.53;100.00
55914;BME280;58179;48.776;9.124;2023-02-17T08:31:19;98148.63;;;9.56;100.00
55914;BME280;58179;48.776;9.124;2023-02-17T08:33:46;98162.84;;;9.55;100.00
55914;BME280;58179;48.776;9.124;2023-02-17T08:36:12;98146.56;;;9.58;100.00
55914;BME280;58179;48.776;9.124;2023-02-17T08:38:39;98141.44;;;9.75;100.00
55914;BME280;58179;48.776;9.124;2023-02-17T08:41:12;98135.66;;;9.66;100.00
55914;BME280;58179;48.776;9.124;2023-02-17T08:43:39;98138.22;;;9.73;100.00
55914;BME280;58179;48.776;9.124;2023-02-17T08:46:09;98142.59;;;9.79;100.00
55914;BME280;58179;48.776;9.124;2023-02-17T08:48:35;98137.06;;;9.80;100.00
55914;BME280;58179;48.776;9.124;2023-02-17T08:51:02;98139.63;;;10.10;100.00
55914;BME280;58179;48.776;9.124;2023-02-17T08:53:28;98136.56;;;10.13;100.00
55914;BME280;58179;48.776;9.124;2023-02-17T08:55:54;98124.00;;;9.97;100.00
55914;BME280;58179;48.776;9.124;2023-02-17T08:58:20;98131.91;;;9.85;100.00
55914;BME280;58179;48.776;9.124;2023-02-17T09:00:45;98131.56;;;9.82;100.00
55914;BME280;58179;48.776;9.124;2023-02-17T09:03:13;98139.59;;;9.75;100.00
55914;BME280;58179;48.776;9.124;2023-02-17T09:05:39;98161.97;;;9.61;100.00
55914;BME280;58179;48.776;9.124;2023-02-17T09:08:05;98139.38;;;9.77;100.00
55914;BME280;58179;48.776;9.124;2023-02-17T09:10:31;98133.22;;;9.53;100.00
55914;BME280;58179;48.776;9.124;2023-02-17T09:12:57;98127.84;;;9.59;100.00
55914;BME280;58179;48.776;9.124;2023-02-17T09:15:27;98126.09;;;9.53;100.00
55914;BME280;58179;48.776;9.124;2023-02-17T09:17:53;98131.41;;;9.65;100.00
55914;BME280;58179;48.776;9.124;2023-02-17T09:20:20;98133.72;;;9.73;100.00
55914;BME280;58179;48.776;9.124;2023-02-17T09:22:46;98122.94;;;9.75;100.00
55914;BME280;58179;48.776;9.124;2023-02-17T09:25:12;98133.50;;;9.86;100.00
55914;BME280;58179;48.776;9.124;2023-02-17T09:27:38;98132.72;;;9.86;100.00
55914;BME280;58179;48.776;9.124;2023-02-17T09:30:06;98144.78;;;9.82;100.00
55914;BME280;58179;48.776;9.124;2023-02-17T09:32:32;98138.84;;;9.98;100.00
55914;BME280;58179;48.776;9.124;2023-02-17T09:34:58;98128.91;;;9.93;100.00
55914;BME280;58179;48.776;9.124;2023-02-17T09:37:27;98136.03;;;9.81;100.00
55914;BME280;58179;48.776;9.124;2023-02-17T09:39:53;98128.59;;;10.01;100.00
55914;BME280;58179;48.776;9.124;2023-02-17T09:42:22;98150.91;;;10.05;100.00
55914;BME280;58179;48.776;9.124;2023-02-17T09:44:53;98143.69;;;10.13;100.00
55914;BME280;58179;48.776;9.124;2023-02-17T09:47:23;98159.22;;;10.32;100.00
55914;BME280;58179;48.776;9.124;2023-02-17T09:49:53;98156.38;;;10.34;100.00
55914;BME280;58179;48.776;9.124;2023-02-17T09:52:28;98166.25;;;10.27;100.00
55914;BME280;58179;48.776;9.124;2023-02-17T09:55:03;98164.41;;;10.27;100.00
55914;BME280;58179;48.776;9.124;2023-02-17T09:57:36;98166.81;;;10.17;100.00
55914;BME280;58179;48.776;9.124;2023-02-17T10:00:10;98176.72;;;10.45;100.00
55914;BME280;58179;48.776;9.124;2023-02-17T10:02:44;98185.56;;;10.97;100.00
55914;BME280;58179;48.776;9.124;2023-02-17T10:05:18;98184.78;;;11.53;100.00
55914;BME280;58179;48.776;9.124;2023-02-17T10:07:49;98181.69;;;12.01;100.00
55914;BME280;58179;48.776;9.124;2023-02-17T10:10:21;98186.00;;;12.41;100.00
55914;BME280;58179;48.776;9.124;2023-02-17T10:12:51;98184.88;;;12.03;100.00
55914;BME280;58179;48.776;9.124;2023-02-17T10:15:23;98193.66;;;11.87;100.00
55914;BME280;58179;48.776;9.124;2023-02-17T10:17:57;98189.53;;;11.80;100.00
55914;BME280;58179;48.776;9.124;2023-02-17T10:20:31;98191.75;;;11.71;100.00
55914;BME280;58179;48.776;9.124;2023-02-17T10:23:05;98192.16;;;11.23;100.00
55914;BME280;58179;48.776;9.124;2023-02-17T10:25:57;98190.34;;;11.12;100.00
55914;BME280;58179;48.776;9.124;2023-02-17T10:28:40;98183.75;;;11.14;100.00
55914;BME280;58179;48.776;9.124;2023-02-17T10:31:14;98183.25;;;11.29;100.00
55914;BME280;58179;48.776;9.124;2023-02-17T10:33:51;98184.19;;;11.51;100.00
55914;BME280;58179;48.776;9.124;2023-02-17T10:36:26;98186.78;;;11.75;100.00
55914;BME280;58179;48.776;9.124;2023-02-17T10:39:00;98177.50;;;12.06;100.00
55914;BME280;58179;48.776;9.124;2023-02-17T10:41:35;98172.41;;;12.04;100.00
55914;BME280;58179;48.776;9.124;2023-02-17T10:44:07;98175.41;;;12.24;100.00
55914;BME280;58179;48.776;9.124;2023-02-17T10:46:39;98169.84;;;12.26;100.00
55914;BME280;58179;48.776;9.124;2023-02-17T10:49:17;98180.31;;;12.32;100.00
55914;BME280;58179;48.776;9.124;2023-02-17T10:51:48;98164.97;;;12.56;100.00
55914;BME280;58179;48.776;9.124;2023-02-17T10:54:25;98157.09;;;12.61;100.00
55914;BME280;58179;48.776;9.124;2023-02-17T10:56:56;98156.50;;;12.37;100.00
55914;BME280;58179;48.776;9.124;2023-02-17T10:59:26;98155.63;;;12.32;100.00
55914;BME280;58179;48.776;9.124;2023-02-17T11:01:57;98165.38;;;12.48;100.00
55914;BME280;58179;48.776;9.124;2023-02-17T11:04:25;98161.25;;;12.74;100.00
55914;BME280;58179;48.776;9.124;2023-02-17T11:06:53;98156.53;;;13.20;100.00
55914;BME280;58179;48.776;9.124;2023-02-17T11:09:25;98153.19;;;13.29;100.00
55914;BME280;58179;48.776;9.124;2023-02-17T11:11:59;98166.97;;;13.26;100.00
55914;BME280;58179;48.776;9.124;2023-02-17T11:14:28;98151.13;;;13.36;100.00
55914;BME280;58179;48.776;9.124;2023-02-17T11:16:58;98147.03;;;13.50;100.00
55914;BME280;58179;48.776;9.124;2023-02-17T11:19:28;98140.41;;;13.53;100.00
55914;BME280;58179;48.776;9.124;2023-02-17T11:21:57;98127.81;;;13.43;100.00
55914;BME280;58179;48.776;9.124;2023-02-17T11:24:25;98157.63;;;13.45;100.00
55914;BME280;58179;48.776;9.124;2023-02-17T11:26:57;98129.63;;;13.70;100.00
55914;BME280;58179;48.776;9.124;2023-02-17T11:29:23;98124.72;;;13.56;100.00
55914;BME280;58179;48.776;9.124;2023-02-17T11:31:57;98109.69;;;13.40;100.00
55914;BME280;58179;48.776;9.124;2023-02-17T11:34:27;98121.91;;;13.14;100.00
55914;BME280;58179;48.776;9.124;2023-02-17T11:36:58;98119.97;;;13.10;100.00
55914;BME280;58179;48.776;9.124;2023-02-17T11:39:26;98125.09;;;12.95;100.00
55914;BME280;58179;48.776;9.124;2023-02-17T11:41:52;98114.13;;;13.08;100.00
55914;BME280;58179;48.776;9.124;2023-02-17T11:44:24;98121.81;;;13.09;100.00
55914;BME280;58179;48.776;9.124;2023-02-17T11:47:00;98129.50;;;12.84;100.00
55914;BME280;58179;48.776;9.124;2023-02-17T11:53:13;98132.16;;;12.84;100.00
55914;BME280;58179;48.776;9.124;2023-02-17T11:55:56;98136.34;;;12.80;100.00
55914;BME280;58179;48.776;9.124;2023-02-17T11:58:43;98133.44;;;13.03;100.00
55914;BME280;58179;48.776;9.124;2023-02-17T12:01:28;98143.34;;;13.08;100.00
55914;BME280;58179;48.776;9.124;2023-02-17T12:04:24;98139.47;;;13.15;100.00
55914;BME280;58179;48.776;9.124;2023-02-17T12:09:50;98144.06;;;13.03;100.00
55914;BME280;58179;48.776;9.124;2023-02-17T12:12:30;98144.81;;;12.77;100.00
55914;BME280;58179;48.776;9.124;2023-02-17T12:15:16;98146.53;;;12.88;100.00
55914;BME280;58179;48.776;9.124;2023-02-17T12:17:56;98144.13;;;12.87;100.00
55914;BME280;58179;48.776;9.124;2023-02-17T12:20:40;98145.00;;;12.70;100.00
55914;BME280;58179;48.776;9.124;2023-02-17T12:23:31;98149.56;;;12.53;100.00
55914;BME280;58179;48.776;9.124;2023-02-17T12:26:05;98138.22;;;12.41;100.00
55914;BME280;58179;48.776;9.124;2023-02-17T12:28:48;98138.72;;;12.38;100.00
55914;BME280;58179;48.776;9.124;2023-02-17T12:31:41;98140.97;;;12.29;100.00
55914;BME280;58179;48.776;9.124;2023-02-17T12:34:17;98130.19;;;12.36;100.00
55914;BME280;58179;48.776;9.124;2023-02-17T12:36:47;98124.69;;;12.43;100.00
55914;BME280;58179;48.776;9.124;2023-02-17T12:39:17;98134.69;;;12.35;100.00
55914;BME280;58179;48.776;9.124;2023-02-17T12:41:52;98119.97;;;12.28;100.00
55914;BME280;58179;48.776;9.124;2023-02-17T12:44:25;98122.28;;;12.41;100.00
55914;BME280;58179;48.776;9.124;2023-02-17T12:46:56;98120.00;;;12.50;100.00
55914;BME280;58179;48.776;9.124;2023-02-17T12:49:30;98122.06;;;12.64;100.00
55914;BME280;58179;48.776;9.124;2023-02-17T12:52:04;98115.34;;;12.78;100.00
55914;BME280;58179;48.776;9.124;2023-02-17T12:54:35;98120.16;;;12.82;100.00
55914;BME280;58179;48.776;9.124;2023-02-17T12:57:12;98115.91;;;12.80;100.00
55914;BME280;58179;48.776;9.124;2023-02-17T12:59:42;98107.38;;;12.78;100.00
55914;BME280;58179;48.776;9.124;2023-02-17T13:02:11;98111.72;;;12.85;100.00
55914;BME280;58179;48.776;9.124;2023-02-17T13:04:39;98115.91;;;12.80;100.00
55914;BME280;58179;48.776;9.124;2023-02-17T13:07:29;98115.22;;;13.12;100.00
55914;BME280;58179;48.776;9.124;2023-02-17T13:10:01;98127.25;;;13.14;100.00
55914;BME280;58179;48.776;9.124;2023-02-17T13:12:37;98123.66;;;13.09;100.00
55914;BME280;58179;48.776;9.124;2023-02-17T13:15:29;98121.22;;;13.02;100.00
55914;BME280;58179;48.776;9.124;2023-02-17T13:17:58;98101.69;;;12.92;100.00
55914;BME280;58179;48.776;9.124;2023-02-17T13:20:53;98107.44;;;12.84;100.00
55914;BME280;58179;48.776;9.124;2023-02-17T13:23:36;98112.44;;;12.80;100.00